sensor_id;sensor_type;location;lat;lon;timestamp;temperature;humidity
51007;DHT22;37034;47.886;-3.904;2024-02-16T00:01:59;14.30;99.90
51007;DHT22;37034;47.886;-3.904;2024-02-16T00:04:25;14.10;99.90
51007;DHT22;37034;47.886;-3.904;2024-02-16T00:06:50;14.20;99.90
51007;DHT22;37034;47.886;-3.904;2024-02-16T00:09:16;14.30;99.90
51007;DHT22;37034;47.886;-3.904;2024-02-16T00:11:42;14.40;99.90
51007;DHT22;37034;47.886;-3.904;2024-02-16T00:14:09;14.40;99.90
51007;DHT22;37034;47.886;-3.904;2024-02-16T00:16:34;14.30;99.90
51007;DHT22;37034;47.886;-3.904;2024-02-16T00:19:00;14.40;99.90
51007;DHT22;37034;47.886;-3.904;2024-02-16T00:21:26;14.40;99.90
51007;DHT22;37034;47.886;-3.904;2024-02-16T00:23:51;14.50;99.90
51007;DHT22;37034;47.886;-3.904;2024-02-16T00:26:17;14.50;99.90
51007;DHT22;37034;47.886;-3.904;2024-02-16T00:28:42;14.60;99.90
51007;DHT22;37034;47.886;-3.904;2024-02-16T00:31:08;14.60;99.90
51007;DHT22;37034;47.886;-3.904;2024-02-16T00:33:34;14.70;99.90
51007;DHT22;37034;47.886;-3.904;2024-02-16T00:36:00;14.60;99.90
51007;DHT22;37034;47.886;-3.904;2024-02-16T00:38:25;14.50;99.90
51007;DHT22;37034;47.886;-3.904;2024-02-16T00:40:51;14.60;99.90
51007;DHT22;37034;47.886;-3.904;2024-02-16T00:43:17;14.70;99.90
51007;DHT22;37034;47.886;-3.904;2024-02-16T00:45:43;14.80;99.90
51007;DHT22;37034;47.886;-3.904;2024-02-16T00:48:10;14.80;99.90
51007;DHT22;37034;47.886;-3.904;2024-02-16T00:50:36;14.80;99.90
51007;DHT22;37034;47.886;-3.904;2024-02-16T00:53:02;14.80;99.90
51007;DHT22;37034;47.886;-3.904;2024-02-16T00:55:29;14.60;99.90
51007;DHT22;37034;47.886;-3.904;2024-02-16T00:57:55;14.70;99.90
51007;DHT22;37034;47.886;-3.904;2024-02-16T01:00:21;14.70;99.90
51007;DHT22;37034;47.886;-3.904;2024-02-16T01:02:49;14.70;99.90
51007;DHT22;37034;47.886;-3.904;2024-02-16T01:05:14;14.50;99.90
51007;DHT22;37034;47.886;-3.904;2024-02-16T01:07:43;14.40;99.90
51007;DHT22;37034;47.886;-3.904;2024-02-16T01:10:09;14.50;99.90
51007;DHT22;37034;47.886;-3.904;2024-02-16T01:12:35;14.50;99.90
51007;DHT22;37034;47.886;-3.904;2024-02-16T01:15:00;14.50;99.90
51007;DHT22;37034;47.886;-3.904;2024-02-16T01:17:26;14.70;99.90
51007;DHT22;37034;47.886;-3.904;2024-02-16T01:19:51;14.70;99.90
51007;DHT22;37034;47.886;-3.904;2024-02-16T01:22:17;14.70;99.90
51007;DHT22;37034;47.886;-3.904;2024-02-16T01:24:43;14.60;99.90
51007;DHT22;37034;47.886;-3.904;2024-02-16T01:27:09;14.50;99.90
51007;DHT22;37034;47.886;-3.904;2024-02-16T01:29:36;14.60;99.90
51007;DHT22;37034;47.886;-3.904;2024-02-16T01:32:02;14.60;99.90
51007;DHT22;37034;47.886;-3.904;2024-02-16T01:34:28;14.50;99.90
51007;DHT22;37034;47.886;-3.904;2024-02-16T01:36:56;14.40;99.90
51007;DHT22;37034;47.886;-3.904;2024-02-16T01:39:21;14.50;99.90
51007;DHT22;37034;47.886;-3.904;2024-02-16T01:41:47;14.50;99.90
51007;DHT22;37034;47.886;-3.904;2024-02-16T01:44:13;14.50;99.90
51007;DHT22;37034;47.886;-3.904;2024-02-16T01:46:40;14.50;99.90
51007;DHT22;37034;47.886;-3.904;2024-02-16T01:49:06;14.40;99.90
51007;DHT22;37034;47.886;-3.904;2024-02-16T01:51:33;14.30;99.90
51007;DHT22;37034;47.886;-3.904;2024-02-16T01:54:01;14.30;99.90
51007;DHT22;37034;47.886;-3.904;2024-02-16T01:56:27;14.30;99.90
51007;DHT22;37034;47.886;-3.904;2024-02-16T01:58:53;14.30;99.90
51007;DHT22;37034;47.886;-3.904;2024-02-16T02:01:18;14.30;99.90
51007;DHT22;37034;47.886;-3.904;2024-02-16T02:03:44;14.30;99.90
51007;DHT22;37034;47.886;-3.904;2024-02-16T02:06:10;14.30;99.90
51007;DHT22;37034;47.886;-3.904;2024-02-16T02:08:35;14.40;99.90
51007;DHT22;37034;47.886;-3.904;2024-02-16T02:11:01;14.30;99.90
51007;DHT22;37034;47.886;-3.904;2024-02-16T02:13:27;14.30;99.90
51007;DHT22;37034;47.886;-3.904;2024-02-16T02:15:54;14.30;99.90
51007;DHT22;37034;47.886;-3.904;2024-02-16T02:18:20;14.20;99.90
51007;DHT22;37034;47.886;-3.904;2024-02-16T02:20:45;14.20;99.90
51007;DHT22;37034;47.886;-3.904;2024-02-16T02:23:11;14.20;99.90
51007;DHT22;37034;47.886;-3.904;2024-02-16T02:25:37;14.30;99.90
51007;DHT22;37034;47.886;-3.904;2024-02-16T02:28:03;14.30;99.90
51007;DHT22;37034;47.886;-3.904;2024-02-16T02:30:28;14.00;99.90
51007;DHT22;37034;47.886;-3.904;2024-02-16T02:32:54;13.90;99.90
51007;DHT22;37034;47.886;-3.904;2024-02-16T02:35:20;13.90;99.90
51007;DHT22;37034;47.886;-3.904;2024-02-16T02:37:46;14.00;99.90
51007;DHT22;37034;47.886;-3.904;2024-02-16T02:40:11;13.90;99.90
51007;DHT22;37034;47.886;-3.904;2024-02-16T02:42:37;14.00;99.90
51007;DHT22;37034;47.886;-3.904;2024-02-16T02:45:04;14.00;99.90
51007;DHT22;37034;47.886;-3.904;2024-02-16T02:47:30;14.00;99.90
51007;DHT22;37034;47.886;-3.904;2024-02-16T02:49:55;14.00;99.90
51007;DHT22;37034;47.886;-3.904;2024-02-16T02:52:21;14.00;99.90
51007;DHT22;37034;47.886;-3.904;2024-02-16T02:54:47;14.00;99.90
51007;DHT22;37034;47.886;-3.904;2024-02-16T02:57:12;14.00;99.90
51007;DHT22;37034;47.886;-3.904;2024-02-16T02:59:38;13.70;99.90
51007;DHT22;37034;47.886;-3.904;2024-02-16T03:02:04;13.80;99.90
51007;DHT22;37034;47.886;-3.904;2024-02-16T03:04:29;13.80;99.90
51007;DHT22;37034;47.886;-3.904;2024-02-16T03:06:55;13.80;99.90
51007;DHT22;37034;47.886;-3.904;2024-02-16T03:09:21;13.90;99.90
51007;DHT22;37034;47.886;-3.904;2024-02-16T03:11:48;13.90;99.90
51007;DHT22;37034;47.886;-3.904;2024-02-16T03:14:14;13.80;99.90
51007;DHT22;37034;47.886;-3.904;2024-02-16T03:16:40;13.70;99.90
51007;DHT22;37034;47.886;-3.904;2024-02-16T03:19:06;13.70;99.90
51007;DHT22;37034;47.886;-3.904;2024-02-16T03:21:34;13.70;99.90
51007;DHT22;37034;47.886;-3.904;2024-02-16T03:24:01;13.80;99.90
51007;DHT22;37034;47.886;-3.904;2024-02-16T03:26:26;13.80;99.90
51007;DHT22;37034;47.886;-3.904;2024-02-16T03:28:52;13.70;99.90
51007;DHT22;37034;47.886;-3.904;2024-02-16T03:31:24;13.80;99.90
51007;DHT22;37034;47.886;-3.904;2024-02-16T03:33:51;13.90;99.90
51007;DHT22;37034;47.886;-3.904;2024-02-16T03:36:17;13.90;99.90
51007;DHT22;37034;47.886;-3.904;2024-02-16T03:38:43;13.70;99.90
51007;DHT22;37034;47.886;-3.904;2024-02-16T03:41:12;13.50;99.90
51007;DHT22;37034;47.886;-3.904;2024-02-16T03:43:37;13.60;99.90
51007;DHT22;37034;47.886;-3.904;2024-02-16T03:46:03;13.60;99.90
51007;DHT22;37034;47.886;-3.904;2024-02-16T03:48:29;13.70;99.90
51007;DHT22;37034;47.886;-3.904;2024-02-16T03:50:55;13.70;99.90
51007;DHT22;37034;47.886;-3.904;2024-02-16T03:53:21;13.70;99.90
51007;DHT22;37034;47.886;-3.904;2024-02-16T03:55:46;13.50;99.90
51007;DHT22;37034;47.886;-3.904;2024-02-16T03:58:12;13.50;99.90
51007;DHT22;37034;47.886;-3.904;2024-02-16T04:00:38;13.30;99.90
51007;DHT22;37034;47.886;-3.904;2024-02-16T04:03:04;13.40;99.90
51007;DHT22;37034;47.886;-3.904;2024-02-16T04:05:29;13.40;99.90
51007;DHT22;37034;47.886;-3.904;2024-02-16T04:07:58;13.50;99.90
51007;DHT22;37034;47.886;-3.904;2024-02-16T04:10:27;13.50;99.90
51007;DHT22;37034;47.886;-3.904;2024-02-16T04:12:56;13.60;99.90
51007;DHT22;37034;47.886;-3.904;2024-02-16T04:15:21;13.50;99.90
51007;DHT22;37034;47.886;-3.904;2024-02-16T04:17:47;13.60;99.90
51007;DHT22;37034;47.886;-3.904;2024-02-16T04:20:15;13.60;99.90
51007;DHT22;37034;47.886;-3.904;2024-02-16T04:22:41;13.50;99.90
51007;DHT22;37034;47.886;-3.904;2024-02-16T04:25:07;13.50;99.90
51007;DHT22;37034;47.886;-3.904;2024-02-16T04:27:37;13.60;99.90
51007;DHT22;37034;47.886;-3.904;2024-02-16T04:30:03;13.60;99.90
51007;DHT22;37034;47.886;-3.904;2024-02-16T04:32:29;13.60;99.90
51007;DHT22;37034;47.886;-3.904;2024-02-16T04:34:55;13.70;99.90
51007;DHT22;37034;47.886;-3.904;2024-02-16T04:37:27;13.60;99.90
51007;DHT22;37034;47.886;-3.904;2024-02-16T04:39:52;13.60;99.90
51007;DHT22;37034;47.886;-3.904;2024-02-16T04:42:18;13.60;99.90
51007;DHT22;37034;47.886;-3.904;2024-02-16T04:44:44;13.60;99.90
51007;DHT22;37034;47.886;-3.904;2024-02-16T04:47:10;13.60;99.90
51007;DHT22;37034;47.886;-3.904;2024-02-16T04:49:36;13.60;99.90
51007;DHT22;37034;47.886;-3.904;2024-02-16T04:52:02;13.60;99.90
51007;DHT22;37034;47.886;-3.904;2024-02-16T04:54:28;13.60;99.90
51007;DHT22;37034;47.886;-3.904;2024-02-16T04:56:54;13.60;99.90
51007;DHT22;37034;47.886;-3.904;2024-02-16T04:59:19;13.60;99.90
51007;DHT22;37034;47.886;-3.904;2024-02-16T05:01:46;13.60;99.90
51007;DHT22;37034;47.886;-3.904;2024-02-16T05:04:12;13.50;99.90
51007;DHT22;37034;47.886;-3.904;2024-02-16T05:06:41;13.50;99.90
51007;DHT22;37034;47.886;-3.904;2024-02-16T05:09:07;13.50;99.90
51007;DHT22;37034;47.886;-3.904;2024-02-16T05:11:33;13.50;99.90
51007;DHT22;37034;47.886;-3.904;2024-02-16T05:13:58;13.50;99.90
51007;DHT22;37034;47.886;-3.904;2024-02-16T05:16:25;13.50;99.90
51007;DHT22;37034;47.886;-3.904;2024-02-16T05:18:51;13.50;99.90
51007;DHT22;37034;47.886;-3.904;2024-02-16T05:21:16;13.50;99.90
51007;DHT22;37034;47.886;-3.904;2024-02-16T05:23:42;13.50;99.90
51007;DHT22;37034;47.886;-3.904;2024-02-16T05:26:08;13.50;99.90
51007;DHT22;37034;47.886;-3.904;2024-02-16T05:28:33;13.50;99.90
51007;DHT22;37034;47.886;-3.904;2024-02-16T05:31:15;13.60;99.90
51007;DHT22;37034;47.886;-3.904;2024-02-16T05:33:45;13.60;99.90
51007;DHT22;37034;47.886;-3.904;2024-02-16T05:36:11;13.60;99.90
51007;DHT22;37034;47.886;-3.904;2024-02-16T05:38:38;13.60;99.90
51007;DHT22;37034;47.886;-3.904;2024-02-16T05:41:09;13.60;99.90
51007;DHT22;37034;47.886;-3.904;2024-02-16T05:43:37;13.50;99.90
51007;DHT22;37034;47.886;-3.904;2024-02-16T05:46:04;13.50;99.90
51007;DHT22;37034;47.886;-3.904;2024-02-16T05:48:33;13.40;99.90
51007;DHT22;37034;47.886;-3.904;2024-02-16T05:51:00;13.40;99.90
51007;DHT22;37034;47.886;-3.904;2024-02-16T05:53:27;13.40;99.90
51007;DHT22;37034;47.886;-3.904;2024-02-16T05:55:55;13.40;99.90
51007;DHT22;37034;47.886;-3.904;2024-02-16T05:58:21;13.30;99.90
51007;DHT22;37034;47.886;-3.904;2024-02-16T06:00:47;13.30;99.90
51007;DHT22;37034;47.886;-3.904;2024-02-16T06:03:14;13.30;99.90
51007;DHT22;37034;47.886;-3.904;2024-02-16T06:05:39;13.20;99.90
51007;DHT22;37034;47.886;-3.904;2024-02-16T06:08:13;13.20;99.90
51007;DHT22;37034;47.886;-3.904;2024-02-16T06:10:39;13.20;99.90
51007;DHT22;37034;47.886;-3.904;2024-02-16T06:13:05;13.10;99.90
51007;DHT22;37034;47.886;-3.904;2024-02-16T06:15:31;13.10;99.90
51007;DHT22;37034;47.886;-3.904;2024-02-16T06:17:59;13.00;99.90
51007;DHT22;37034;47.886;-3.904;2024-02-16T06:20:25;12.90;99.90
51007;DHT22;37034;47.886;-3.904;2024-02-16T06:22:50;12.90;99.90
51007;DHT22;37034;47.886;-3.904;2024-02-16T06:25:16;12.80;99.90
51007;DHT22;37034;47.886;-3.904;2024-02-16T06:27:42;12.80;99.90
51007;DHT22;37034;47.886;-3.904;2024-02-16T06:30:08;12.80;99.90
51007;DHT22;37034;47.886;-3.904;2024-02-16T06:32:38;12.80;99.90
51007;DHT22;37034;47.886;-3.904;2024-02-16T06:35:04;12.80;99.90
51007;DHT22;37034;47.886;-3.904;2024-02-16T06:37:30;12.80;99.90
51007;DHT22;37034;47.886;-3.904;2024-02-16T06:39:57;12.80;99.90
51007;DHT22;37034;47.886;-3.904;2024-02-16T06:42:23;12.90;99.90
51007;DHT22;37034;47.886;-3.904;2024-02-16T06:44:48;12.90;99.90
51007;DHT22;37034;47.886;-3.904;2024-02-16T06:47:15;12.90;99.90
51007;DHT22;37034;47.886;-3.904;2024-02-16T06:49:41;13.00;99.90
51007;DHT22;37034;47.886;-3.904;2024-02-16T06:52:07;13.00;99.90
51007;DHT22;37034;47.886;-3.904;2024-02-16T06:54:34;13.10;99.90
51007;DHT22;37034;47.886;-3.904;2024-02-16T06:57:00;13.10;99.90
51007;DHT22;37034;47.886;-3.904;2024-02-16T06:59:26;13.20;99.90
51007;DHT22;37034;47.886;-3.904;2024-02-16T07:01:52;13.20;99.90
51007;DHT22;37034;47.886;-3.904;2024-02-16T07:04:18;13.20;99.90
51007;DHT22;37034;47.886;-3.904;2024-02-16T07:06:44;13.20;99.90
51007;DHT22;37034;47.886;-3.904;2024-02-16T07:09:09;13.30;99.90
51007;DHT22;37034;47.886;-3.904;2024-02-16T07:11:35;13.30;99.90
51007;DHT22;37034;47.886;-3.904;2024-02-16T07:14:01;13.30;99.90
51007;DHT22;37034;47.886;-3.904;2024-02-16T07:16:28;13.40;99.90
51007;DHT22;37034;47.886;-3.904;2024-02-16T07:18:53;13.40;99.90
51007;DHT22;37034;47.886;-3.904;2024-02-16T07:21:19;13.40;99.90
51007;DHT22;37034;47.886;-3.904;2024-02-16T07:23:46;13.50;99.90
51007;DHT22;37034;47.886;-3.904;2024-02-16T07:26:11;13.50;99.90
51007;DHT22;37034;47.886;-3.904;2024-02-16T07:28:38;13.50;99.90
51007;DHT22;37034;47.886;-3.904;2024-02-16T07:31:04;13.60;99.90
51007;DHT22;37034;47.886;-3.904;2024-02-16T07:33:29;13.60;99.90
51007;DHT22;37034;47.886;-3.904;2024-02-16T07:35:55;13.60;99.90
51007;DHT22;37034;47.886;-3.904;2024-02-16T07:38:21;13.60;99.90
51007;DHT22;37034;47.886;-3.904;2024-02-16T07:40:47;13.60;99.90
51007;DHT22;37034;47.886;-3.904;2024-02-16T07:43:13;13.60;99.90
51007;DHT22;37034;47.886;-3.904;2024-02-16T07:45:39;13.60;99.90
51007;DHT22;37034;47.886;-3.904;2024-02-16T07:48:05;13.60;99.90
51007;DHT22;37034;47.886;-3.904;2024-02-16T07:50:33;13.60;99.90
51007;DHT22;37034;47.886;-3.904;2024-02-16T07:52:58;13.60;99.90
51007;DHT22;37034;47.886;-3.904;2024-02-16T07:55:24;13.60;99.90
51007;DHT22;37034;47.886;-3.904;2024-02-16T07:57:50;13.70;99.90
51007;DHT22;37034;47.886;-3.904;2024-02-16T08:00:17;13.70;99.90
51007;DHT22;37034;47.886;-3.904;2024-02-16T08:02:42;13.70;99.90
51007;DHT22;37034;47.886;-3.904;2024-02-16T08:05:11;13.70;99.90
51007;DHT22;37034;47.886;-3.904;2024-02-16T08:07:41;13.80;99.90
51007;DHT22;37034;47.886;-3.904;2024-02-16T08:10:08;13.80;99.90
51007;DHT22;37034;47.886;-3.904;2024-02-16T08:12:34;13.80;99.90
51007;DHT22;37034;47.886;-3.904;2024-02-16T08:15:04;13.80;99.90
51007;DHT22;37034;47.886;-3.904;2024-02-16T08:17:32;13.90;99.90
51007;DHT22;37034;47.886;-3.904;2024-02-16T08:19:58;13.90;99.90
51007;DHT22;37034;47.886;-3.904;2024-02-16T08:22:24;14.00;99.90
51007;DHT22;37034;47.886;-3.904;2024-02-16T08:24:50;14.00;99.90
51007;DHT22;37034;47.886;-3.904;2024-02-16T08:27:16;14.10;99.90
51007;DHT22;37034;47.886;-3.904;2024-02-16T08:29:42;14.10;99.90
51007;DHT22;37034;47.886;-3.904;2024-02-16T08:32:08;14.20;99.90
51007;DHT22;37034;47.886;-3.904;2024-02-16T08:34:34;14.20;99.90
51007;DHT22;37034;47.886;-3.904;2024-02-16T08:37:03;14.20;99.90
51007;DHT22;37034;47.886;-3.904;2024-02-16T08:39:29;14.30;99.90
51007;DHT22;37034;47.886;-3.904;2024-02-16T08:41:56;14.30;99.90
51007;DHT22;37034;47.886;-3.904;2024-02-16T08:44:21;14.30;99.90
51007;DHT22;37034;47.886;-3.904;2024-02-16T08:46:47;14.30;99.90
51007;DHT22;37034;47.886;-3.904;2024-02-16T08:49:15;14.30;99.90
51007;DHT22;37034;47.886;-3.904;2024-02-16T08:51:40;14.40;99.90
51007;DHT22;37034;47.886;-3.904;2024-02-16T08:54:06;14.50;99.90
51007;DHT22;37034;47.886;-3.904;2024-02-16T08:56:32;14.50;99.90
51007;DHT22;37034;47.886;-3.904;2024-02-16T08:59:01;14.60;99.90
51007;DHT22;37034;47.886;-3.904;2024-02-16T09:01:38;14.60;99.90
51007;DHT22;37034;47.886;-3.904;2024-02-16T09:04:05;14.60;99.90
51007;DHT22;37034;47.886;-3.904;2024-02-16T09:06:30;14.60;99.90
51007;DHT22;37034;47.886;-3.904;2024-02-16T09:08:56;14.70;99.90
51007;DHT22;37034;47.886;-3.904;2024-02-16T09:11:23;14.70;99.90
51007;DHT22;37034;47.886;-3.904;2024-02-16T09:13:49;14.70;99.90
51007;DHT22;37034;47.886;-3.904;2024-02-16T09:16:15;14.80;99.90
51007;DHT22;37034;47.886;-3.904;2024-02-16T09:18:41;14.80;99.90
51007;DHT22;37034;47.886;-3.904;2024-02-16T09:21:07;14.90;99.90
51007;DHT22;37034;47.886;-3.904;2024-02-16T09:23:34;14.90;99.90
51007;DHT22;37034;47.886;-3.904;2024-02-16T09:26:00;14.80;99.90
51007;DHT22;37034;47.886;-3.904;2024-02-16T09:28:27;14.80;99.90
51007;DHT22;37034;47.886;-3.904;2024-02-16T09:30:54;14.90;99.90
51007;DHT22;37034;47.886;-3.904;2024-02-16T09:33:21;14.90;99.90
51007;DHT22;37034;47.886;-3.904;2024-02-16T09:35:47;14.90;99.90
51007;DHT22;37034;47.886;-3.904;2024-02-16T09:38:13;15.00;99.90
51007;DHT22;37034;47.886;-3.904;2024-02-16T09:40:38;15.00;99.90
51007;DHT22;37034;47.886;-3.904;2024-02-16T09:43:04;15.00;99.90
51007;DHT22;37034;47.886;-3.904;2024-02-16T09:45:30;15.00;99.90
51007;DHT22;37034;47.886;-3.904;2024-02-16T09:47:58;15.10;99.90
51007;DHT22;37034;47.886;-3.904;2024-02-16T09:50:24;15.10;99.90
51007;DHT22;37034;47.886;-3.904;2024-02-16T09:52:50;15.20;99.90
51007;DHT22;37034;47.886;-3.904;2024-02-16T09:55:16;15.20;99.90
51007;DHT22;37034;47.886;-3.904;2024-02-16T09:57:43;15.30;99.90
51007;DHT22;37034;47.886;-3.904;2024-02-16T10:00:10;15.40;99.90
51007;DHT22;37034;47.886;-3.904;2024-02-16T10:02:45;15.30;99.90
51007;DHT22;37034;47.886;-3.904;2024-02-16T10:05:15;15.30;99.90
51007;DHT22;37034;47.886;-3.904;2024-02-16T10:07:42;15.30;99.90
51007;DHT22;37034;47.886;-3.904;2024-02-16T10:10:28;15.30;99.90
51007;DHT22;37034;47.886;-3.904;2024-02-16T10:13:02;15.30;99.90
51007;DHT22;37034;47.886;-3.904;2024-02-16T10:15:29;15.20;99.90
51007;DHT22;37034;47.886;-3.904;2024-02-16T10:18:02;15.20;99.90
51007;DHT22;37034;47.886;-3.904;2024-02-16T10:20:28;15.30;99.90
51007;DHT22;37034;47.886;-3.904;2024-02-16T10:23:11;15.30;99.90
51007;DHT22;37034;47.886;-3.904;2024-02-16T10:25:39;15.00;99.90
51007;DHT22;37034;47.886;-3.904;2024-02-16T10:28:08;15.10;99.90
51007;DHT22;37034;47.886;-3.904;2024-02-16T10:30:39;15.20;99.90
51007;DHT22;37034;47.886;-3.904;2024-02-16T10:33:06;15.30;99.90
51007;DHT22;37034;47.886;-3.904;2024-02-16T10:35:34;15.40;99.90
51007;DHT22;37034;47.886;-3.904;2024-02-16T10:38:05;15.40;99.90
51007;DHT22;37034;47.886;-3.904;2024-02-16T10:40:37;15.50;99.90
51007;DHT22;37034;47.886;-3.904;2024-02-16T10:43:04;15.50;99.90
51007;DHT22;37034;47.886;-3.904;2024-02-16T10:45:35;15.60;99.90
51007;DHT22;37034;47.886;-3.904;2024-02-16T10:48:02;15.60;99.90
51007;DHT22;37034;47.886;-3.904;2024-02-16T10:50:28;15.60;99.90
51007;DHT22;37034;47.886;-3.904;2024-02-16T10:52:56;15.60;99.90
51007;DHT22;37034;47.886;-3.904;2024-02-16T10:55:23;15.60;99.90
51007;DHT22;37034;47.886;-3.904;2024-02-16T10:57:50;15.60;99.90
51007;DHT22;37034;47.886;-3.904;2024-02-16T11:00:16;15.50;99.90
51007;DHT22;37034;47.886;-3.904;2024-02-16T11:02:58;15.50;99.90
51007;DHT22;37034;47.886;-3.904;2024-02-16T11:05:36;15.50;99.90
51007;DHT22;37034;47.886;-3.904;2024-02-16T11:08:12;15.60;99.90
51007;DHT22;37034;47.886;-3.904;2024-02-16T11:10:38;15.80;99.90
51007;DHT22;37034;47.886;-3.904;2024-02-16T11:13:04;15.80;99.90
51007;DHT22;37034;47.886;-3.904;2024-02-16T11:15:34;15.90;99.90
51007;DHT22;37034;47.886;-3.904;2024-02-16T11:18:02;16.10;99.90
51007;DHT22;37034;47.886;-3.904;2024-02-16T11:20:28;16.10;99.90
51007;DHT22;37034;47.886;-3.904;2024-02-16T11:23:13;16.20;99.90
51007;DHT22;37034;47.886;-3.904;2024-02-16T11:25:49;16.20;99.90
51007;DHT22;37034;47.886;-3.904;2024-02-16T11:28:15;16.10;99.90
51007;DHT22;37034;47.886;-3.904;2024-02-16T11:30:42;16.00;99.90
51007;DHT22;37034;47.886;-3.904;2024-02-16T11:33:10;15.90;99.90
51007;DHT22;37034;47.886;-3.904;2024-02-16T11:35:36;15.80;99.90
51007;DHT22;37034;47.886;-3.904;2024-02-16T11:38:02;15.80;99.90
51007;DHT22;37034;47.886;-3.904;2024-02-16T11:40:27;15.90;99.90
51007;DHT22;37034;47.886;-3.904;2024-02-16T11:43:00;16.00;99.90
51007;DHT22;37034;47.886;-3.904;2024-02-16T11:45:26;15.90;99.90
51007;DHT22;37034;47.886;-3.904;2024-02-16T11:48:03;15.90;99.90
51007;DHT22;37034;47.886;-3.904;2024-02-16T11:50:29;15.80;99.90
51007;DHT22;37034;47.886;-3.904;2024-02-16T11:52:55;15.80;99.90
51007;DHT22;37034;47.886;-3.904;2024-02-16T11:55:21;15.80;99.90
51007;DHT22;37034;47.886;-3.904;2024-02-16T11:57:47;15.80;99.90
51007;DHT22;37034;47.886;-3.904;2024-02-16T12:00:16;15.70;99.90
51007;DHT22;37034;47.886;-3.904;2024-02-16T12:02:42;15.70;99.90
51007;DHT22;37034;47.886;-3.904;2024-02-16T12:05:08;15.70;99.90
51007;DHT22;37034;47.886;-3.904;2024-02-16T12:07:37;15.80;99.90
51007;DHT22;37034;47.886;-3.904;2024-02-16T12:10:06;15.90;99.90
51007;DHT22;37034;47.886;-3.904;2024-02-16T12:12:32;16.00;99.90
51007;DHT22;37034;47.886;-3.904;2024-02-16T12:14:58;16.00;99.90
51007;DHT22;37034;47.886;-3.904;2024-02-16T12:17:24;16.10;99.90
51007;DHT22;37034;47.886;-3.904;2024-02-16T12:19:51;16.20;99.90
51007;DHT22;37034;47.886;-3.904;2024-02-16T12:22:18;16.30;99.90
51007;DHT22;37034;47.886;-3.904;2024-02-16T12:24:48;16.20;99.90
51007;DHT22;37034;47.886;-3.904;2024-02-16T12:27:15;16.20;99.90
51007;DHT22;37034;47.886;-3.904;2024-02-16T12:29:41;16.40;99.90
51007;DHT22;37034;47.886;-3.904;2024-02-16T12:32:07;16.50;99.90
51007;DHT22;37034;47.886;-3.904;2024-02-16T12:34:35;16.60;99.90
51007;DHT22;37034;47.886;-3.904;2024-02-16T12:37:07;16.60;99.90
51007;DHT22;37034;47.886;-3.904;2024-02-16T12:39:35;16.70;99.90
51007;DHT22;37034;47.886;-3.904;2024-02-16T12:42:01;16.70;99.90
51007;DHT22;37034;47.886;-3.904;2024-02-16T12:44:26;16.80;99.90
51007;DHT22;37034;47.886;-3.904;2024-02-16T12:46:52;16.80;99.90
51007;DHT22;37034;47.886;-3.904;2024-02-16T12:49:18;16.70;99.90
51007;DHT22;37034;47.886;-3.904;2024-02-16T12:51:50;16.60;99.90
51007;DHT22;37034;47.886;-3.904;2024-02-16T12:54:16;16.40;99.90
51007;DHT22;37034;47.886;-3.904;2024-02-16T12:56:47;16.40;99.90
51007;DHT22;37034;47.886;-3.904;2024-02-16T12:59:14;16.30;99.90
51007;DHT22;37034;47.886;-3.904;2024-02-16T13:01:39;16.50;99.90
51007;DHT22;37034;47.886;-3.904;2024-02-16T13:04:06;16.50;99.90
51007;DHT22;37034;47.886;-3.904;2024-02-16T13:06:32;16.50;99.90
51007;DHT22;37034;47.886;-3.904;2024-02-16T13:08:58;16.40;99.90
51007;DHT22;37034;47.886;-3.904;2024-02-16T13:11:25;16.50;99.90
51007;DHT22;37034;47.886;-3.904;2024-02-16T13:13:50;16.60;99.90
51007;DHT22;37034;47.886;-3.904;2024-02-16T13:16:17;16.70;99.90
51007;DHT22;37034;47.886;-3.904;2024-02-16T13:18:43;16.70;99.90
51007;DHT22;37034;47.886;-3.904;2024-02-16T13:21:08;16.80;99.90
51007;DHT22;37034;47.886;-3.904;2024-02-16T13:23:34;16.90;99.90
51007;DHT22;37034;47.886;-3.904;2024-02-16T13:26:00;17.00;99.90
51007;DHT22;37034;47.886;-3.904;2024-02-16T13:28:25;17.10;99.90
51007;DHT22;37034;47.886;-3.904;2024-02-16T13:30:51;17.00;99.90
51007;DHT22;37034;47.886;-3.904;2024-02-16T13:33:17;17.00;99.90
51007;DHT22;37034;47.886;-3.904;2024-02-16T13:35:42;17.00;99.90
51007;DHT22;37034;47.886;-3.904;2024-02-16T13:38:08;17.10;99.90
51007;DHT22;37034;47.886;-3.904;2024-02-16T13:40:34;17.10;99.90
51007;DHT22;37034;47.886;-3.904;2024-02-16T13:43:01;17.20;99.90
51007;DHT22;37034;47.886;-3.904;2024-02-16T13:45:51;17.10;99.90
51007;DHT22;37034;47.886;-3.904;2024-02-16T13:48:18;17.10;99.90
51007;DHT22;37034;47.886;-3.904;2024-02-16T13:50:47;17.10;99.90
51007;DHT22;37034;47.886;-3.904;2024-02-16T13:53:14;17.20;99.90
51007;DHT22;37034;47.886;-3.904;2024-02-16T13:55:41;17.30;99.90
51007;DHT22;37034;47.886;-3.904;2024-02-16T13:58:07;17.30;99.90
51007;DHT22;37034;47.886;-3.904;2024-02-16T14:00:33;17.30;99.90
51007;DHT22;37034;47.886;-3.904;2024-02-16T14:02:59;17.20;99.90
51007;DHT22;37034;47.886;-3.904;2024-02-16T14:05:25;17.10;99.90
51007;DHT22;37034;47.886;-3.904;2024-02-16T14:07:51;17.00;99.90
51007;DHT22;37034;47.886;-3.904;2024-02-16T14:10:17;16.90;99.90
51007;DHT22;37034;47.886;-3.904;2024-02-16T14:12:45;17.00;99.90
51007;DHT22;37034;47.886;-3.904;2024-02-16T14:15:12;17.10;99.90
51007;DHT22;37034;47.886;-3.904;2024-02-16T14:17:41;17.20;99.90
51007;DHT22;37034;47.886;-3.904;2024-02-16T14:20:07;17.30;99.90
51007;DHT22;37034;47.886;-3.904;2024-02-16T14:22:33;17.40;99.90
51007;DHT22;37034;47.886;-3.904;2024-02-16T14:24:59;17.40;99.90
51007;DHT22;37034;47.886;-3.904;2024-02-16T14:27:25;17.50;99.90
51007;DHT22;37034;47.886;-3.904;2024-02-16T14:29:50;17.50;99.90
51007;DHT22;37034;47.886;-3.904;2024-02-16T14:32:17;17.50;99.90
51007;DHT22;37034;47.886;-3.904;2024-02-16T14:34:42;17.40;99.90
51007;DHT22;37034;47.886;-3.904;2024-02-16T14:37:09;17.30;99.90
51007;DHT22;37034;47.886;-3.904;2024-02-16T14:39:35;17.30;99.90
51007;DHT22;37034;47.886;-3.904;2024-02-16T14:42:00;17.30;99.90
51007;DHT22;37034;47.886;-3.904;2024-02-16T14:44:26;17.20;99.90
51007;DHT22;37034;47.886;-3.904;2024-02-16T14:46:52;17.10;99.90
51007;DHT22;37034;47.886;-3.904;2024-02-16T14:49:17;17.20;99.90
51007;DHT22;37034;47.886;-3.904;2024-02-16T14:51:47;16.90;99.90
51007;DHT22;37034;47.886;-3.904;2024-02-16T14:54:13;16.90;99.90
51007;DHT22;37034;47.886;-3.904;2024-02-16T14:56:38;17.00;99.90
51007;DHT22;37034;47.886;-3.904;2024-02-16T14:59:04;17.20;99.90
51007;DHT22;37034;47.886;-3.904;2024-02-16T15:01:31;17.30;99.90
51007;DHT22;37034;47.886;-3.904;2024-02-16T15:03:57;17.30;99.90
51007;DHT22;37034;47.886;-3.904;2024-02-16T15:06:23;17.30;99.90
51007;DHT22;37034;47.886;-3.904;2024-02-16T15:08:50;17.30;99.90
51007;DHT22;37034;47.886;-3.904;2024-02-16T15:11:15;17.20;99.90
51007;DHT22;37034;47.886;-3.904;2024-02-16T15:13:42;17.10;99.90